createdAt,value
2022-10-29T04:33:36.690Z,15.20
2022-10-29T05:28:38.314Z,15.30
2022-10-29T13:02:43.479Z,20.30
2022-10-29T13:42:20.333Z,20.20
2022-10-29T13:46:14.453Z,20.20
2022-10-29T13:50:00.177Z,20.20
2022-10-29T13:58:53.298Z,20.20
2022-10-29T14:55:09.114Z,19.80
2022-10-29T14:59:15.819Z,19.70
2022-10-29T15:10:55.145Z,19.50
2022-10-29T15:14:44.542Z,19.40
2022-10-29T15:36:09.609Z,19.00
2022-10-29T15:44:48.711Z,18.80
2022-10-29T18:48:57.897Z,16.40
2022-10-29T19:09:03.776Z,16.30
2022-10-29T19:12:20.550Z,16.30
2022-10-29T19:28:09.180Z,16.20
2022-10-29T19:35:01.503Z,16.10
2022-10-29T19:48:26.212Z,16.00
2022-10-29T19:51:41.466Z,16.00
2022-10-29T21:17:55.268Z,15.80
2022-10-29T21:20:23.820Z,15.80
2022-10-29T21:22:52.174Z,15.80
2022-10-29T21:25:21.013Z,15.80
2022-10-29T21:27:50.739Z,15.80
2022-10-29T21:30:19.238Z,15.80
2022-10-29T21:32:48.919Z,15.80
2022-10-29T21:35:17.416Z,15.80
2022-10-29T21:37:46.168Z,15.80
2022-10-29T21:40:14.792Z,15.80
2022-10-29T21:42:42.979Z,15.80
2022-10-29T21:45:11.852Z,15.80
2022-10-29T21:47:40.050Z,15.80
2022-10-29T21:50:10.278Z,15.80
2022-10-29T21:52:40.243Z,15.80
2022-10-29T21:55:09.139Z,15.80
2022-10-29T21:57:37.352Z,15.80
2022-10-29T22:00:09.725Z,15.80
2022-10-29T22:02:38.774Z,15.80
2022-10-29T22:05:08.954Z,15.80
2022-10-29T22:07:37.409Z,15.80
2022-10-29T22:10:06.800Z,15.80
2022-10-29T22:12:35.294Z,15.70
2022-10-29T22:15:04.271Z,15.70
2022-10-29T22:17:32.947Z,15.60
2022-10-29T22:20:01.379Z,15.60
2022-10-29T22:22:31.604Z,15.60
2022-10-29T22:25:00.326Z,15.60
2022-10-29T22:27:29.344Z,15.60
2022-10-29T22:29:57.848Z,15.60
2022-10-29T22:32:26.288Z,15.60
2022-10-29T22:34:54.912Z,15.50
2022-10-29T22:37:23.458Z,15.60
2022-10-29T22:39:53.277Z,15.60
2022-10-29T22:42:22.447Z,15.50
2022-10-29T22:44:50.839Z,15.50
2022-10-29T22:47:19.861Z,15.50
2022-10-29T22:49:48.130Z,15.50
2022-10-29T22:52:16.374Z,15.50
2022-10-29T22:54:44.563Z,15.40
2022-10-29T22:57:14.353Z,15.40
2022-10-29T22:59:42.628Z,15.40
2022-10-29T23:02:10.990Z,15.40
2022-10-29T23:04:39.750Z,15.40
2022-10-29T23:07:08.178Z,15.30
2022-10-29T23:09:36.473Z,15.30
2022-10-29T23:12:05.320Z,15.30
2022-10-29T23:14:35.061Z,15.30
2022-10-29T23:17:10.959Z,15.20
2022-10-29T23:19:39.215Z,15.20
2022-10-29T23:22:07.775Z,15.20
2022-10-29T23:24:37.301Z,15.20
2022-10-29T23:27:05.623Z,15.20
2022-10-29T23:29:35.235Z,15.20
2022-10-29T23:32:04.006Z,15.10
2022-10-29T23:34:32.374Z,15.10
2022-10-29T23:37:02.192Z,15.10
2022-10-29T23:39:32.740Z,15.10
2022-10-29T23:42:01.371Z,15.10
2022-10-29T23:44:29.666Z,15.10
2022-10-29T23:46:59.291Z,15.10
2022-10-29T23:49:27.731Z,15.10
2022-10-29T23:51:56.341Z,15.10
2022-10-29T23:54:24.665Z,15.10
2022-10-29T23:56:53.512Z,15.00
2022-10-29T23:59:23.206Z,15.00
